Time;durP1;ratioP1;P1;durP2;ratioP2;P2;SDS_P1;SDS_P2;PMS_P1;PMS_P2;Temp;Humidity;BMP_temperature;BMP_pressure;BME280_temperature;BME280_humidity;BME280_pressure;Samples;Min_cycle;Max_cycle;Signal;HPM_P1;HPM_P2
2023/03/10 00:01:56;;;;;;;4.83;4.00;;;;;;;;;;5042294;28;20238;-71
2023/03/10 00:04:21;;;;;;;5.60;4.43;;;;;;;;;;5022245;28;20237;-71
2023/03/10 00:06:46;;;;;;;5.20;4.43;;;;;;;;;;5015108;28;20749;-71
2023/03/10 00:09:12;;;;;;;5.00;4.10;;;;;;;;;;5013421;28;20232;-71
2023/03/10 00:11:38;;;;;;;4.63;3.83;;;;;;;;;;5021236;28;20230;-71
2023/03/10 00:14:03;;;;;;;5.33;4.40;;;;;;;;;;5022696;28;20554;-71
2023/03/10 00:16:28;;;;;;;5.53;4.00;;;;;;;;;;5022107;28;20591;-71
2023/03/10 00:18:54;;;;;;;5.10;4.23;;;;;;;;;;5024413;28;20207;-72
2023/03/10 00:21:20;;;;;;;5.30;4.20;;;;;;;;;;5041988;28;20219;-72
2023/03/10 00:23:45;;;;;;;5.87;4.00;;;;;;;;;;5030539;28;20601;-72
2023/03/10 00:26:12;;;;;;;5.07;4.33;;;;;;;;;;5018053;28;20802;-72
2023/03/10 00:28:37;;;;;;;5.43;3.57;;;;;;;;;;5016149;28;20223;-72
2023/03/10 00:31:04;;;;;;;4.73;3.90;;;;;;;;;;5014329;28;20227;-72
2023/03/10 00:33:30;;;;;;;4.53;3.70;;;;;;;;;;5018954;28;20238;-72
2023/03/10 00:36:03;;;;;;;4.60;3.83;;;;;;;;;;5022329;28;20585;-72
2023/03/10 00:38:29;;;;;;;4.90;4.00;;;;;;;;;;5013894;28;20228;-72
2023/03/10 00:40:58;;;;;;;4.33;3.63;;;;;;;;;;5003275;28;20668;-72
2023/03/10 00:43:24;;;;;;;4.47;3.80;;;;;;;;;;5002159;28;20683;-71
2023/03/10 00:45:49;;;;;;;4.67;3.60;;;;;;;;;;5021469;28;20227;-71
2023/03/10 00:48:14;;;;;;;4.17;3.30;;;;;;;;;;5019452;28;20369;-71
2023/03/10 00:50:39;;;;;;;3.80;3.27;;;;;;;;;;5014316;28;20226;-72
2023/03/10 00:53:05;;;;;;;4.13;3.40;;;;;;;;;;5013963;28;20227;-72
2023/03/10 00:55:30;;;;;;;4.63;3.47;;;;;;;;;;5016251;28;20247;-72
2023/03/10 00:57:55;;;;;;;4.20;3.33;;;;;;;;;;5021612;28;20208;-71
2023/03/10 01:00:21;;;;;;;3.43;2.90;;;;;;;;;;5021414;28;20223;-71
2023/03/10 01:02:47;;;;;;;3.40;3.07;;;;;;;;;;5021305;28;20220;-70
2023/03/10 01:05:12;;;;;;;3.17;2.87;;;;;;;;;;5002127;28;20235;-70
2023/03/10 01:07:37;;;;;;;4.23;2.80;;;;;;;;;;5020064;28;20239;-71
2023/03/10 01:10:03;;;;;;;3.53;2.90;;;;;;;;;;5021479;28;20671;-71
2023/03/10 01:12:28;;;;;;;4.20;3.40;;;;;;;;;;5014506;28;20531;-71
2023/03/10 01:14:53;;;;;;;4.00;3.33;;;;;;;;;;4998404;28;20220;-72
2023/03/10 01:17:18;;;;;;;3.93;3.30;;;;;;;;;;4994233;28;20240;-70
2023/03/10 01:19:43;;;;;;;3.63;3.27;;;;;;;;;;5001698;28;20621;-70
2023/03/10 01:22:09;;;;;;;4.20;3.40;;;;;;;;;;5003862;28;20218;-70
2023/03/10 01:24:34;;;;;;;3.87;3.43;;;;;;;;;;5006560;28;20224;-70
2023/03/10 01:26:59;;;;;;;3.80;3.30;;;;;;;;;;5005468;28;20204;-70
2023/03/10 01:29:25;;;;;;;3.70;3.23;;;;;;;;;;5005731;28;20224;-69
2023/03/10 01:31:50;;;;;;;3.33;2.93;;;;;;;;;;5005890;28;20248;-70
2023/03/10 01:34:15;;;;;;;3.77;3.33;;;;;;;;;;5000070;28;20240;-69
2023/03/10 01:36:41;;;;;;;3.63;3.30;;;;;;;;;;4997918;28;20251;-69
2023/03/10 01:39:06;;;;;;;3.70;3.10;;;;;;;;;;4997202;28;20544;-69
2023/03/10 01:41:31;;;;;;;3.97;3.30;;;;;;;;;;5002940;28;20248;-69
2023/03/10 01:43:57;;;;;;;3.90;3.33;;;;;;;;;;5005831;28;20236;-69
2023/03/10 01:46:26;;;;;;;4.20;3.80;;;;;;;;;;5013315;28;20223;-68
2023/03/10 01:48:52;;;;;;;3.97;3.50;;;;;;;;;;5034774;28;20754;-69
2023/03/10 01:51:17;;;;;;;4.33;3.63;;;;;;;;;;5034909;28;20236;-69
2023/03/10 01:53:42;;;;;;;3.80;3.43;;;;;;;;;;5034792;28;20219;-69
2023/03/10 01:56:08;;;;;;;4.57;3.80;;;;;;;;;;5034470;28;20239;-68
2023/03/10 01:58:36;;;;;;;4.40;3.77;;;;;;;;;;5035095;28;20686;-69
2023/03/10 02:01:01;;;;;;;4.13;3.73;;;;;;;;;;5032967;28;20715;-68
2023/03/10 02:03:32;;;;;;;4.80;4.20;;;;;;;;;;5034589;28;20251;-69
2023/03/10 02:05:58;;;;;;;4.10;3.70;;;;;;;;;;5033831;28;20576;-69
2023/03/10 02:08:23;;;;;;;4.53;3.90;;;;;;;;;;5034106;28;20675;-69
2023/03/10 02:10:49;;;;;;;4.10;3.67;;;;;;;;;;5033666;28;20683;-69
2023/03/10 02:13:14;;;;;;;3.90;3.20;;;;;;;;;;5033065;28;20239;-69
2023/03/10 02:15:39;;;;;;;4.10;3.70;;;;;;;;;;5019389;28;20221;-69
2023/03/10 02:18:04;;;;;;;4.30;3.80;;;;;;;;;;5014342;28;20228;-69
2023/03/10 02:20:33;;;;;;;3.83;3.43;;;;;;;;;;5030412;28;20664;-69
2023/03/10 02:22:58;;;;;;;4.50;3.90;;;;;;;;;;5029295;28;20219;-69
2023/03/10 02:25:28;;;;;;;4.83;4.10;;;;;;;;;;5014547;28;20212;-69
2023/03/10 02:27:53;;;;;;;4.90;4.20;;;;;;;;;;5049457;28;20203;-69
2023/03/10 02:30:26;;;;;;;5.33;4.40;;;;;;;;;;5033538;28;20208;-69
2023/03/10 02:32:52;;;;;;;4.47;4.00;;;;;;;;;;5032550;28;20256;-70
2023/03/10 02:38:20;;;;;;;4.87;4.07;;;;;;;;;;5033750;28;20218;-71
2023/03/10 02:40:46;;;;;;;4.87;4.03;;;;;;;;;;5034460;28;20220;-70
2023/03/10 02:43:11;;;;;;;5.37;4.40;;;;;;;;;;5033345;28;20226;-70
2023/03/10 02:45:37;;;;;;;5.40;4.40;;;;;;;;;;5033934;28;20216;-70
2023/03/10 02:48:02;;;;;;;5.03;4.17;;;;;;;;;;5019266;28;20220;-70
2023/03/10 02:50:28;;;;;;;4.50;3.80;;;;;;;;;;5015930;28;20219;-70
2023/03/10 02:52:55;;;;;;;4.73;3.80;;;;;;;;;;5016804;28;20204;-70
2023/03/10 02:55:20;;;;;;;4.80;4.00;;;;;;;;;;5013854;28;20295;-69
2023/03/10 02:57:46;;;;;;;4.10;3.70;;;;;;;;;;5015112;28;20236;-69
2023/03/10 03:00:11;;;;;;;4.70;3.87;;;;;;;;;;5013766;28;20248;-69
2023/03/10 03:02:37;;;;;;;4.23;3.70;;;;;;;;;;5014102;28;20221;-69
2023/03/10 03:05:02;;;;;;;4.07;3.47;;;;;;;;;;5031984;28;20239;-69
2023/03/10 03:07:28;;;;;;;4.13;3.60;;;;;;;;;;5034046;28;20222;-70
2023/03/10 03:09:53;;;;;;;4.13;3.33;;;;;;;;;;5034063;28;20265;-70
2023/03/10 03:12:19;;;;;;;4.00;3.30;;;;;;;;;;5032725;28;20208;-71
2023/03/10 03:14:44;;;;;;;5.23;3.80;;;;;;;;;;5033665;28;20675;-71
2023/03/10 03:17:09;;;;;;;3.77;3.37;;;;;;;;;;5033308;28;20212;-70
2023/03/10 03:19:34;;;;;;;4.60;3.30;;;;;;;;;;5033010;28;20261;-70
2023/03/10 03:22:00;;;;;;;4.10;3.33;;;;;;;;;;5033635;28;20211;-71
2023/03/10 03:24:25;;;;;;;3.77;3.20;;;;;;;;;;5033019;28;20702;-70
2023/03/10 03:26:50;;;;;;;3.70;3.20;;;;;;;;;;5032975;28;20211;-70
2023/03/10 03:29:16;;;;;;;4.50;3.50;;;;;;;;;;5033068;28;20222;-69
2023/03/10 03:31:41;;;;;;;3.73;3.27;;;;;;;;;;5032825;28;20212;-69
2023/03/10 03:34:07;;;;;;;4.37;3.83;;;;;;;;;;5032341;28;20235;-69
2023/03/10 03:36:32;;;;;;;4.00;3.40;;;;;;;;;;5033501;28;20634;-69
2023/03/10 03:38:57;;;;;;;4.60;3.80;;;;;;;;;;5032914;28;20216;-69
2023/03/10 03:41:23;;;;;;;4.10;3.50;;;;;;;;;;5032503;28;20215;-69
2023/03/10 03:43:48;;;;;;;4.40;3.47;;;;;;;;;;5033043;28;20289;-69
2023/03/10 03:46:13;;;;;;;4.33;3.50;;;;;;;;;;5031713;28;20251;-69
2023/03/10 03:48:38;;;;;;;4.67;3.60;;;;;;;;;;5032850;28;20240;-69
2023/03/10 03:51:04;;;;;;;4.27;3.63;;;;;;;;;;5032940;28;20220;-69
2023/03/10 03:53:29;;;;;;;3.80;3.20;;;;;;;;;;5032651;28;20267;-69
2023/03/10 03:55:55;;;;;;;3.77;3.37;;;;;;;;;;5031599;28;20679;-69
2023/03/10 03:58:20;;;;;;;4.90;3.77;;;;;;;;;;5032433;28;20659;-69
2023/03/10 04:00:45;;;;;;;4.77;3.90;;;;;;;;;;5032128;28;20298;-69
2023/03/10 04:03:10;;;;;;;4.70;4.00;;;;;;;;;;5032387;28;20219;-68
2023/03/10 04:05:36;;;;;;;5.20;4.20;;;;;;;;;;5032847;28;20268;-66
2023/03/10 04:08:01;;;;;;;5.10;4.30;;;;;;;;;;5015342;28;20630;-68
2023/03/10 04:10:27;;;;;;;4.80;3.73;;;;;;;;;;5020489;28;20219;-68
2023/03/10 04:12:53;;;;;;;4.70;4.17;;;;;;;;;;5007357;28;20717;-69
2023/03/10 04:15:18;;;;;;;5.23;4.50;;;;;;;;;;5002476;28;20208;-69
2023/03/10 04:17:43;;;;;;;5.30;4.30;;;;;;;;;;5021033;28;20573;-69
2023/03/10 04:20:10;;;;;;;4.70;4.10;;;;;;;;;;5014264;28;20614;-69
2023/03/10 04:22:35;;;;;;;4.53;3.97;;;;;;;;;;5014003;28;20266;-69
2023/03/10 04:25:01;;;;;;;4.93;3.90;;;;;;;;;;5005289;28;20714;-68
2023/03/10 04:27:26;;;;;;;4.47;3.67;;;;;;;;;;5003367;28;20671;-69
2023/03/10 04:29:51;;;;;;;4.77;3.83;;;;;;;;;;5001933;28;20367;-69
2023/03/10 04:32:17;;;;;;;4.30;3.57;;;;;;;;;;5002534;28;20738;-70
2023/03/10 04:34:42;;;;;;;5.30;3.93;;;;;;;;;;5003024;28;20271;-70
2023/03/10 04:37:08;;;;;;;4.53;3.80;;;;;;;;;;5021156;28;20216;-69
2023/03/10 04:39:33;;;;;;;4.93;4.10;;;;;;;;;;5022691;28;20219;-69
2023/03/10 04:41:58;;;;;;;4.20;3.43;;;;;;;;;;5004228;28;20256;-69
2023/03/10 04:44:24;;;;;;;4.60;3.70;;;;;;;;;;4994287;28;20232;-69
2023/03/10 04:46:49;;;;;;;4.40;3.40;;;;;;;;;;4994777;28;20212;-69
2023/03/10 04:49:14;;;;;;;4.27;3.67;;;;;;;;;;5001058;28;20220;-68
2023/03/10 04:51:40;;;;;;;4.27;3.37;;;;;;;;;;5002619;28;20239;-69
2023/03/10 04:54:05;;;;;;;4.50;3.50;;;;;;;;;;5021549;28;20295;-67
2023/03/10 04:56:30;;;;;;;4.13;3.30;;;;;;;;;;5019855;28;20204;-69
2023/03/10 04:58:56;;;;;;;5.07;3.20;;;;;;;;;;5006552;28;20243;-69
2023/03/10 05:01:21;;;;;;;3.80;2.83;;;;;;;;;;5023829;28;20574;-68
2023/03/10 05:03:46;;;;;;;4.27;3.07;;;;;;;;;;5013149;28;20340;-68
2023/03/10 05:06:12;;;;;;;3.90;2.93;;;;;;;;;;4998020;28;20220;-68
2023/03/10 05:08:38;;;;;;;3.57;2.70;;;;;;;;;;4998572;28;20313;-69
2023/03/10 05:11:09;;;;;;;3.20;2.60;;;;;;;;;;5020790;28;20816;-68
2023/03/10 05:13:34;;;;;;;3.17;2.47;;;;;;;;;;5026251;28;20327;-68
2023/03/10 05:15:59;;;;;;;3.50;2.60;;;;;;;;;;5017529;28;20639;-68
2023/03/10 05:18:25;;;;;;;3.00;2.27;;;;;;;;;;5005218;28;20220;-69
2023/03/10 05:20:52;;;;;;;3.13;2.50;;;;;;;;;;5006416;28;20223;-68
2023/03/10 05:23:17;;;;;;;3.10;2.40;;;;;;;;;;5005842;28;20343;-68
2023/03/10 05:25:42;;;;;;;2.97;2.40;;;;;;;;;;5003738;28;21092;-68
2023/03/10 05:28:08;;;;;;;2.97;2.37;;;;;;;;;;4998029;28;20406;-68
2023/03/10 05:30:33;;;;;;;3.83;2.90;;;;;;;;;;4997949;28;20231;-70
2023/03/10 05:32:58;;;;;;;3.37;2.80;;;;;;;;;;4998976;28;20576;-71
2023/03/10 05:35:23;;;;;;;3.23;2.70;;;;;;;;;;5005760;28;20256;-70
2023/03/10 05:37:49;;;;;;;3.50;2.70;;;;;;;;;;5005797;28;20946;-70
2023/03/10 05:40:15;;;;;;;3.70;2.87;;;;;;;;;;5005141;28;20220;-70
2023/03/10 05:42:40;;;;;;;3.57;2.80;;;;;;;;;;5025073;28;20702;-70
2023/03/10 05:45:06;;;;;;;3.40;2.60;;;;;;;;;;5024990;28;20226;-70
2023/03/10 05:47:32;;;;;;;3.07;2.30;;;;;;;;;;5025048;28;20695;-72
2023/03/10 05:49:58;;;;;;;3.93;2.80;;;;;;;;;;5018391;28;20347;-72
2023/03/10 05:52:23;;;;;;;4.63;2.63;;;;;;;;;;5016371;28;20679;-71
2023/03/10 05:54:48;;;;;;;3.37;2.50;;;;;;;;;;5016774;28;20680;-70
2023/03/10 05:57:14;;;;;;;3.57;2.70;;;;;;;;;;5014769;28;20212;-69
2023/03/10 05:59:39;;;;;;;3.17;2.27;;;;;;;;;;5004978;28;20227;-70
2023/03/10 06:02:04;;;;;;;3.27;2.20;;;;;;;;;;5005410;28;20228;-70
2023/03/10 06:04:32;;;;;;;2.43;1.90;;;;;;;;;;5005303;28;20818;-69
2023/03/10 06:06:59;;;;;;;2.13;1.60;;;;;;;;;;5021969;28;20262;-70
2023/03/10 06:09:25;;;;;;;2.03;1.70;;;;;;;;;;5024542;28;20220;-69
2023/03/10 06:11:50;;;;;;;2.37;1.97;;;;;;;;;;5020709;28;20212;-70
2023/03/10 06:14:15;;;;;;;2.60;2.10;;;;;;;;;;5015864;28;20274;-69
2023/03/10 06:16:41;;;;;;;2.33;1.90;;;;;;;;;;5002751;28;20266;-69
2023/03/10 06:19:06;;;;;;;2.53;1.97;;;;;;;;;;5001177;28;20220;-68
2023/03/10 06:21:31;;;;;;;2.20;1.80;;;;;;;;;;5004701;28;20224;-69
2023/03/10 06:23:58;;;;;;;2.73;1.97;;;;;;;;;;5005530;28;20304;-69
2023/03/10 06:26:23;;;;;;;3.00;2.30;;;;;;;;;;5005177;28;20621;-68
2023/03/10 06:28:48;;;;;;;2.50;1.93;;;;;;;;;;5004348;28;20240;-68
2023/03/10 06:31:15;;;;;;;2.90;2.50;;;;;;;;;;5005615;28;20270;-70
2023/03/10 06:33:40;;;;;;;2.70;2.17;;;;;;;;;;5014873;28;20659;-69
2023/03/10 06:36:07;;;;;;;3.10;2.80;;;;;;;;;;4995397;28;20434;-65
2023/03/10 06:38:32;;;;;;;2.80;2.30;;;;;;;;;;4996691;28;20242;-67
2023/03/10 06:40:58;;;;;;;3.13;2.40;;;;;;;;;;4998525;28;20225;-67
2023/03/10 06:43:23;;;;;;;3.20;2.50;;;;;;;;;;5003582;28;20228;-70
2023/03/10 06:45:48;;;;;;;3.17;2.57;;;;;;;;;;5005174;28;20231;-68
2023/03/10 06:48:14;;;;;;;3.43;2.40;;;;;;;;;;5004666;28;20216;-69
2023/03/10 06:50:40;;;;;;;2.90;2.43;;;;;;;;;;5003648;28;20294;-68
2023/03/10 06:53:05;;;;;;;2.93;2.43;;;;;;;;;;5004351;28;20248;-67
2023/03/10 06:55:30;;;;;;;3.53;2.60;;;;;;;;;;5004097;28;20691;-68
2023/03/10 06:57:56;;;;;;;3.00;2.50;;;;;;;;;;4997946;28;20224;-68
2023/03/10 07:00:21;;;;;;;3.33;2.57;;;;;;;;;;4995883;28;20219;-69
2023/03/10 07:02:46;;;;;;;3.43;2.53;;;;;;;;;;4996414;28;20227;-67
2023/03/10 07:05:12;;;;;;;3.00;2.47;;;;;;;;;;5002842;28;20231;-68
2023/03/10 07:07:37;;;;;;;3.10;2.63;;;;;;;;;;5004629;28;20224;-68
2023/03/10 07:10:03;;;;;;;3.17;2.67;;;;;;;;;;5003067;28;20374;-68
2023/03/10 07:12:28;;;;;;;5.60;3.83;;;;;;;;;;5023162;28;20748;-66
2023/03/10 07:14:54;;;;;;;3.53;2.80;;;;;;;;;;5024120;28;20216;-67
2023/03/10 07:17:19;;;;;;;3.60;2.90;;;;;;;;;;5003077;28;20221;-67
2023/03/10 07:19:44;;;;;;;3.83;3.20;;;;;;;;;;4999835;28;20439;-69
2023/03/10 07:22:10;;;;;;;3.40;2.87;;;;;;;;;;4995373;28;20219;-68
2023/03/10 07:24:35;;;;;;;3.40;2.90;;;;;;;;;;4995358;28;20263;-68
2023/03/10 07:27:00;;;;;;;3.57;2.73;;;;;;;;;;5000366;28;20201;-67
2023/03/10 07:29:26;;;;;;;4.07;3.07;;;;;;;;;;5011921;28;20213;-67
2023/03/10 07:31:51;;;;;;;4.00;3.00;;;;;;;;;;5022687;28;20727;-68
2023/03/10 07:34:17;;;;;;;5.10;3.40;;;;;;;;;;5027771;28;20220;-68
2023/03/10 07:36:43;;;;;;;4.03;3.30;;;;;;;;;;5032779;28;20230;-67
2023/03/10 07:39:08;;;;;;;4.00;2.97;;;;;;;;;;5029112;28;20299;-69
2023/03/10 07:41:34;;;;;;;4.10;3.17;;;;;;;;;;5036026;28;20342;-67
2023/03/10 07:43:59;;;;;;;3.97;3.00;;;;;;;;;;5033144;28;20585;-67
2023/03/10 07:46:24;;;;;;;3.70;3.00;;;;;;;;;;5032018;28;20226;-67
2023/03/10 07:48:51;;;;;;;3.80;3.03;;;;;;;;;;5033178;28;20223;-67
2023/03/10 07:51:17;;;;;;;4.10;3.37;;;;;;;;;;5031397;28;20215;-68
2023/03/10 07:53:43;;;;;;;4.57;3.40;;;;;;;;;;5032257;28;20215;-71
2023/03/10 07:56:09;;;;;;;3.87;3.07;;;;;;;;;;5031584;28;20242;-70
2023/03/10 07:58:34;;;;;;;3.70;3.07;;;;;;;;;;5032884;28;20583;-70
2023/03/10 08:00:59;;;;;;;4.23;3.30;;;;;;;;;;5032248;28;20215;-70
2023/03/10 08:03:25;;;;;;;4.13;3.07;;;;;;;;;;5032472;28;20762;-69
2023/03/10 08:05:50;;;;;;;3.87;3.10;;;;;;;;;;5032329;28;20270;-69
2023/03/10 08:08:16;;;;;;;4.37;3.27;;;;;;;;;;5032019;28;20270;-69
2023/03/10 08:10:41;;;;;;;3.90;3.20;;;;;;;;;;5032268;28;20591;-69
2023/03/10 08:13:07;;;;;;;4.50;3.20;;;;;;;;;;5030401;28;20243;-69
2023/03/10 08:15:32;;;;;;;3.83;3.07;;;;;;;;;;5032522;28;20215;-69
2023/03/10 08:17:57;;;;;;;3.63;2.90;;;;;;;;;;5032610;28;20608;-69
2023/03/10 08:20:23;;;;;;;4.43;3.10;;;;;;;;;;5031507;28;20299;-68
2023/03/10 08:22:48;;;;;;;4.37;3.27;;;;;;;;;;5031298;28;20222;-69
2023/03/10 08:25:14;;;;;;;4.10;3.00;;;;;;;;;;5031582;28;20247;-70
2023/03/10 08:27:40;;;;;;;3.33;2.60;;;;;;;;;;5031654;28;20212;-68
2023/03/10 08:30:06;;;;;;;3.83;3.20;;;;;;;;;;5017801;28;20299;-65
2023/03/10 08:32:31;;;;;;;3.63;3.20;;;;;;;;;;5021939;28;20291;-67
2023/03/10 08:34:56;;;;;;;5.03;3.67;;;;;;;;;;5031599;28;20227;-69
2023/03/10 08:37:21;;;;;;;6.07;4.60;;;;;;;;;;5029729;28;20353;-69
2023/03/10 08:39:48;;;;;;;4.33;3.63;;;;;;;;;;5031515;28;20200;-69
2023/03/10 08:42:14;;;;;;;4.53;3.00;;;;;;;;;;5026973;28;20212;-68
2023/03/10 08:44:39;;;;;;;4.17;2.93;;;;;;;;;;5032141;28;20216;-69
2023/03/10 08:47:05;;;;;;;4.93;3.50;;;;;;;;;;5032012;28;20212;-68
2023/03/10 08:49:30;;;;;;;5.50;4.07;;;;;;;;;;5031641;28;20299;-67
2023/03/10 08:51:56;;;;;;;4.63;3.30;;;;;;;;;;5032204;28;20721;-69
2023/03/10 08:54:21;;;;;;;5.07;3.70;;;;;;;;;;5031445;28;20207;-69
2023/03/10 08:56:46;;;;;;;4.53;3.53;;;;;;;;;;5032179;28;20242;-69
2023/03/10 08:59:12;;;;;;;4.00;3.07;;;;;;;;;;5031804;28;20589;-68
2023/03/10 09:01:37;;;;;;;4.10;3.23;;;;;;;;;;5032233;28;20702;-68
2023/03/10 09:04:03;;;;;;;4.50;3.03;;;;;;;;;;5030815;28;20230;-68
2023/03/10 09:06:28;;;;;;;4.67;3.40;;;;;;;;;;5032217;28;20273;-68
2023/03/10 09:08:54;;;;;;;3.60;2.97;;;;;;;;;;5032000;28;20224;-68
2023/03/10 09:11:21;;;;;;;3.53;3.07;;;;;;;;;;5030540;28;20255;-68
2023/03/10 09:13:47;;;;;;;4.73;3.97;;;;;;;;;;5032237;28;20261;-68
2023/03/10 09:16:12;;;;;;;9.33;5.67;;;;;;;;;;5031129;28;20299;-67
2023/03/10 09:18:37;;;;;;;6.17;5.17;;;;;;;;;;5031933;28;20238;-67
2023/03/10 09:21:03;;;;;;;5.97;4.30;;;;;;;;;;5031555;28;20223;-67
2023/03/10 09:23:28;;;;;;;3.67;3.07;;;;;;;;;;5031117;28;20266;-67
2023/03/10 09:25:53;;;;;;;6.50;4.40;;;;;;;;;;5031409;28;20208;-68
2023/03/10 09:28:19;;;;;;;3.17;2.87;;;;;;;;;;5031589;28;20238;-68
2023/03/10 09:30:44;;;;;;;5.53;3.10;;;;;;;;;;5031133;28;20215;-68
2023/03/10 09:33:14;;;;;;;5.53;3.13;;;;;;;;;;5031449;28;20231;-69
2023/03/10 09:35:39;;;;;;;4.60;3.20;;;;;;;;;;5031999;28;20212;-72
2023/03/10 09:38:04;;;;;;;3.37;2.80;;;;;;;;;;5030338;28;20216;-72
2023/03/10 09:40:29;;;;;;;3.67;2.80;;;;;;;;;;5031240;28;20302;-72
2023/03/10 09:42:56;;;;;;;4.47;2.97;;;;;;;;;;5031689;28;20211;-72
2023/03/10 09:45:22;;;;;;;4.00;2.90;;;;;;;;;;5032890;28;20100;-75
2023/03/10 09:47:49;;;;;;;4.80;3.40;;;;;;;;;;5033995;28;20243;-72
2023/03/10 09:50:17;;;;;;;3.50;2.80;;;;;;;;;;5034759;28;20242;-71
2023/03/10 09:52:44;;;;;;;3.33;2.70;;;;;;;;;;5033412;28;20208;-71
2023/03/10 09:55:09;;;;;;;2.93;2.40;;;;;;;;;;5034276;28;20701;-70
2023/03/10 09:57:35;;;;;;;3.23;2.53;;;;;;;;;;5034904;28;20200;-68
2023/03/10 10:00:01;;;;;;;3.10;2.37;;;;;;;;;;5033110;28;20229;-70
2023/03/10 10:02:27;;;;;;;3.13;2.60;;;;;;;;;;5033514;28;20301;-69
2023/03/10 10:04:54;;;;;;;3.37;2.40;;;;;;;;;;5033456;28;20656;-69
2023/03/10 10:07:21;;;;;;;3.57;2.50;;;;;;;;;;5032489;28;20655;-69
2023/03/10 10:09:47;;;;;;;9.17;5.50;;;;;;;;;;5034410;28;20208;-69
2023/03/10 10:12:14;;;;;;;3.40;2.50;;;;;;;;;;5034363;28;20706;-69
2023/03/10 10:14:39;;;;;;;4.10;2.30;;;;;;;;;;5033991;28;20385;-69
2023/03/10 10:17:07;;;;;;;3.40;2.30;;;;;;;;;;5034357;28;20737;-69
2023/03/10 10:19:33;;;;;;;2.83;2.30;;;;;;;;;;5032785;28;20211;-70
2023/03/10 10:22:01;;;;;;;3.03;2.20;;;;;;;;;;5033393;28;20223;-69
2023/03/10 10:24:27;;;;;;;3.20;2.47;;;;;;;;;;5033496;28;20245;-69
2023/03/10 10:26:52;;;;;;;3.33;2.37;;;;;;;;;;5032699;28;20203;-69
2023/03/10 10:29:18;;;;;;;3.10;2.07;;;;;;;;;;5033658;28;20208;-68
2023/03/10 10:32:01;;;;;;;3.70;2.30;;;;;;;;;;5032667;28;20227;-69
2023/03/10 10:34:26;;;;;;;3.63;2.30;;;;;;;;;;5031190;28;20238;-68
2023/03/10 10:36:54;;;;;;;2.90;2.20;;;;;;;;;;5033880;28;20220;-68
2023/03/10 10:39:23;;;;;;;2.77;2.00;;;;;;;;;;5030430;28;20682;-68
2023/03/10 10:41:48;;;;;;;2.77;2.23;;;;;;;;;;5033335;28;20579;-69
2023/03/10 10:44:14;;;;;;;4.67;3.60;;;;;;;;;;5033540;28;20240;-68
2023/03/10 10:46:48;;;;;;;2.83;2.40;;;;;;;;;;5034442;28;20361;-68
2023/03/10 10:49:18;;;;;;;3.40;2.57;;;;;;;;;;5033001;28;20297;-68
2023/03/10 10:51:43;;;;;;;3.47;2.67;;;;;;;;;;5033838;28;20214;-68
2023/03/10 10:54:18;;;;;;;3.53;2.50;;;;;;;;;;5031074;28;20215;-68
2023/03/10 10:56:51;;;;;;;3.27;2.60;;;;;;;;;;5031734;28;20215;-69
2023/03/10 10:59:18;;;;;;;3.23;2.40;;;;;;;;;;5032211;28;20215;-66
2023/03/10 11:01:45;;;;;;;2.77;2.17;;;;;;;;;;5033224;28;20299;-67
2023/03/10 11:04:10;;;;;;;2.65;2.40;;;;;;;;;;5032586;28;20545;-67
2023/03/10 11:18:33;;;;;;;2.60;2.30;;;;;;;;;;5131399;27;20285;-70
2023/03/10 11:21:03;;;;;;;2.73;2.40;;;;;;;;;;5109405;28;20256;-69
2023/03/10 11:23:29;;;;;;;2.47;2.20;;;;;;;;;;5099609;28;20196;-69
2023/03/10 11:25:55;;;;;;;2.47;2.13;;;;;;;;;;5092049;28;20154;-69
2023/03/10 11:28:30;;;;;;;2.57;2.23;;;;;;;;;;5092047;28;20196;-73
2023/03/10 11:31:03;;;;;;;3.20;2.47;;;;;;;;;;5090248;28;20249;-74
2023/03/10 11:33:32;;;;;;;2.77;2.00;;;;;;;;;;5089484;28;20151;-72
2023/03/10 11:35:59;;;;;;;2.53;2.10;;;;;;;;;;5089281;28;20253;-70
2023/03/10 11:38:36;;;;;;;2.60;1.87;;;;;;;;;;5088987;28;20173;-71
2023/03/10 11:41:03;;;;;;;1.90;1.67;;;;;;;;;;5084444;28;20206;-68
2023/03/10 11:43:30;;;;;;;2.17;1.70;;;;;;;;;;5048515;28;20621;-69
2023/03/10 11:45:55;;;;;;;2.33;1.70;;;;;;;;;;5046222;28;20260;-69
2023/03/10 11:48:26;;;;;;;1.97;1.70;;;;;;;;;;5043519;28;20215;-69
2023/03/10 11:50:53;;;;;;;2.03;1.83;;;;;;;;;;5047959;28;20294;-69
2023/03/10 11:53:24;;;;;;;2.23;1.80;;;;;;;;;;5047300;28;20211;-69
2023/03/10 11:55:49;;;;;;;2.33;1.70;;;;;;;;;;5047353;28;20215;-70
2023/03/10 11:58:23;;;;;;;2.27;2.00;;;;;;;;;;5047500;28;20222;-70
2023/03/10 12:00:51;;;;;;;2.80;2.10;;;;;;;;;;5030749;28;20561;-71
2023/03/10 12:03:29;;;;;;;2.00;1.70;;;;;;;;;;5047225;28;20212;-71
2023/03/10 12:05:56;;;;;;;1.50;1.40;;;;;;;;;;5046098;28;20237;-71
2023/03/10 12:08:22;;;;;;;1.80;1.60;;;;;;;;;;5047048;28;20234;-72
2023/03/10 12:10:48;;;;;;;1.73;1.50;;;;;;;;;;5047732;28;20293;-72
2023/03/10 12:13:23;;;;;;;1.80;1.60;;;;;;;;;;5046201;28;20739;-71
2023/03/10 12:15:49;;;;;;;1.60;1.40;;;;;;;;;;5043200;28;20250;-72
2023/03/10 12:18:14;;;;;;;2.50;1.40;;;;;;;;;;5047062;28;20242;-71
2023/03/10 12:20:40;;;;;;;1.90;1.63;;;;;;;;;;5052854;28;20215;-71
2023/03/10 12:23:11;;;;;;;1.77;1.40;;;;;;;;;;5054265;28;20257;-71
2023/03/10 12:25:37;;;;;;;2.13;1.70;;;;;;;;;;5054049;28;20617;-71
2023/03/10 12:28:17;;;;;;;1.67;1.40;;;;;;;;;;5054546;28;20747;-71
2023/03/10 12:30:48;;;;;;;1.87;1.67;;;;;;;;;;5052974;28;20222;-70
2023/03/10 12:33:29;;;;;;;2.13;1.80;;;;;;;;;;5035657;28;20219;-73
2023/03/10 12:36:11;;;;;;;2.40;2.20;;;;;;;;;;5033616;28;20433;-72
2023/03/10 12:38:45;;;;;;;2.83;2.10;;;;;;;;;;5073221;28;20206;-67
2023/03/10 12:41:10;;;;;;;2.72;2.30;;;;;;;;;;5065565;28;20420;-70
2023/03/10 12:43:37;;;;;;;2.63;2.40;;;;;;;;;;5052364;28;20423;-72
2023/03/10 12:46:02;;;;;;;2.70;2.40;;;;;;;;;;5052092;28;20435;-74
2023/03/10 12:48:27;;;;;;;2.47;2.03;;;;;;;;;;5023625;28;20239;-72
2023/03/10 12:50:57;;;;;;;2.50;2.20;;;;;;;;;;5014505;28;20220;-73
2023/03/10 12:53:32;;;;;;;2.83;2.10;;;;;;;;;;5012558;28;20215;-72
2023/03/10 12:56:04;;;;;;;4.20;2.73;;;;;;;;;;5013399;28;20219;-74
2023/03/10 12:58:29;;;;;;;4.00;2.80;;;;;;;;;;5014562;28;20604;-73
2023/03/10 13:00:56;;;;;;;3.77;2.87;;;;;;;;;;5013797;28;20303;-72
2023/03/10 13:03:26;;;;;;;2.73;2.37;;;;;;;;;;5014364;28;20236;-73
2023/03/10 13:05:54;;;;;;;3.00;2.70;;;;;;;;;;5012709;28;20209;-73
2023/03/10 13:08:28;;;;;;;2.63;2.43;;;;;;;;;;5013429;28;20225;-75
2023/03/10 13:10:54;;;;;;;4.00;3.60;;;;;;;;;;5013036;28;20606;-72
2023/03/10 13:13:19;;;;;;;5.20;4.53;;;;;;;;;;5012687;28;20216;-72
2023/03/10 13:15:55;;;;;;;5.90;5.30;;;;;;;;;;5013758;28;20228;-72
2023/03/10 13:18:21;;;;;;;4.30;3.73;;;;;;;;;;5040892;28;20237;-72
2023/03/10 13:20:46;;;;;;;4.53;3.80;;;;;;;;;;5053600;28;20207;-73
2023/03/10 13:23:17;;;;;;;7.13;6.43;;;;;;;;;;5052765;28;20207;-72
2023/03/10 13:25:50;;;;;;;4.17;3.60;;;;;;;;;;5044342;28;20223;-74
2023/03/10 13:28:16;;;;;;;3.80;3.00;;;;;;;;;;5063145;28;20241;-72
2023/03/10 13:30:41;;;;;;;4.40;3.60;;;;;;;;;;5072732;28;20635;-73
2023/03/10 13:33:17;;;;;;;4.07;3.27;;;;;;;;;;5072845;28;20210;-68
2023/03/10 13:35:42;;;;;;;3.97;3.23;;;;;;;;;;5054757;28;20237;-72
2023/03/10 13:38:16;;;;;;;4.53;3.90;;;;;;;;;;5072808;28;20241;-71
2023/03/10 13:40:43;;;;;;;7.90;5.87;;;;;;;;;;5073544;28;20207;-70
2023/03/10 13:43:18;;;;;;;4.67;3.67;;;;;;;;;;5054316;28;20209;-71
2023/03/10 13:45:43;;;;;;;5.90;4.97;;;;;;;;;;5055626;28;20209;-70
2023/03/10 13:48:09;;;;;;;5.03;4.17;;;;;;;;;;5070391;28;20223;-72
2023/03/10 13:50:34;;;;;;;4.87;3.77;;;;;;;;;;5054490;28;20233;-72
2023/03/10 13:53:00;;;;;;;5.30;4.10;;;;;;;;;;5072920;28;20665;-72
2023/03/10 13:55:26;;;;;;;4.27;3.27;;;;;;;;;;5072859;28;20230;-71
2023/03/10 13:57:52;;;;;;;3.90;3.20;;;;;;;;;;5054505;28;20246;-72
2023/03/10 14:00:18;;;;;;;3.90;3.30;;;;;;;;;;5054727;28;20799;-72
2023/03/10 14:02:44;;;;;;;3.93;3.20;;;;;;;;;;5072973;28;20202;-72
2023/03/10 14:05:44;;;;;;;4.10;3.30;;;;;;;;;;5053837;28;20214;-71
2023/03/10 14:08:18;;;;;;;3.50;2.83;;;;;;;;;;5072241;28;20341;-70
2023/03/10 14:10:43;;;;;;;3.67;2.97;;;;;;;;;;5072191;28;20688;-70
2023/03/10 14:13:28;;;;;;;3.27;2.67;;;;;;;;;;5050213;28;20206;-70
2023/03/10 14:15:53;;;;;;;3.77;3.13;;;;;;;;;;5072230;28;20660;-71
2023/03/10 14:18:19;;;;;;;3.50;2.90;;;;;;;;;;5071104;28;20254;-70
2023/03/10 14:20:45;;;;;;;3.50;2.77;;;;;;;;;;5072478;28;20206;-71
2023/03/10 14:23:17;;;;;;;3.73;2.97;;;;;;;;;;5054423;28;20241;-71
2023/03/10 14:25:43;;;;;;;3.53;3.10;;;;;;;;;;5071975;28;20754;-71
2023/03/10 14:28:18;;;;;;;3.70;3.00;;;;;;;;;;5054221;28;20223;-71
2023/03/10 14:30:43;;;;;;;3.57;2.97;;;;;;;;;;5054616;28;20214;-69
2023/03/10 14:33:10;;;;;;;4.67;3.00;;;;;;;;;;5049728;28;20218;-71
2023/03/10 14:35:35;;;;;;;4.60;3.50;;;;;;;;;;5051900;28;20665;-71
2023/03/10 14:38:01;;;;;;;3.70;3.00;;;;;;;;;;5069906;28;20355;-67
2023/03/10 14:40:26;;;;;;;3.83;2.93;;;;;;;;;;5069587;28;20210;-71
2023/03/10 14:42:51;;;;;;;4.13;3.30;;;;;;;;;;5070167;28;20669;-72
2023/03/10 14:45:20;;;;;;;3.73;3.10;;;;;;;;;;5069734;28;20217;-71
2023/03/10 14:47:46;;;;;;;4.30;2.97;;;;;;;;;;5069858;28;20211;-72
2023/03/10 14:50:12;;;;;;;3.60;3.00;;;;;;;;;;5051665;28;20218;-71
2023/03/10 14:52:37;;;;;;;3.90;2.80;;;;;;;;;;5051879;28;20297;-72
2023/03/10 14:55:06;;;;;;;3.90;3.10;;;;;;;;;;5069856;28;20289;-72